Time;durP1;ratioP1;P1;durP2;ratioP2;P2;SDS_P1;SDS_P2;PMS_P1;PMS_P2;Temp;Humidity;BMP_temperature;BMP_pressure;BME280_temperature;BME280_humidity;BME280_pressure;Samples;Min_cycle;Max_cycle;Signal;HPM_P1;HPM_P2
2022/10/16 00:00:01;;;;;;;3.58;0.80;;;;;;;;;;5005711;28;20036;-74
2022/10/16 00:02:27;;;;;;;2.22;0.80;;;;;;;;;;5000543;28;20018;-73
2022/10/16 00:04:54;;;;;;;4.60;0.70;;;;;;;;;;5000485;28;20061;-74
2022/10/16 00:07:20;;;;;;;3.55;1.10;;;;;;;;;;5004968;28;20031;-74
2022/10/16 00:09:46;;;;;;;3.97;1.60;;;;;;;;;;5007929;28;20033;-74
2022/10/16 00:12:12;;;;;;;7.20;1.20;;;;;;;;;;5009927;28;20022;-74
2022/10/16 00:14:40;;;;;;;3.28;0.80;;;;;;;;;;5007586;28;20706;-74
2022/10/16 00:17:06;;;;;;;8.63;0.90;;;;;;;;;;5009838;28;20465;-74
2022/10/16 00:19:32;;;;;;;7.57;1.00;;;;;;;;;;5005221;28;20049;-74
2022/10/16 00:21:58;;;;;;;11.73;1.00;;;;;;;;;;4999451;28;20163;-74
2022/10/16 00:24:24;;;;;;;7.47;1.40;;;;;;;;;;5010456;28;20036;-73
2022/10/16 00:26:50;;;;;;;6.82;1.50;;;;;;;;;;4996494;28;20022;-74
2022/10/16 00:29:16;;;;;;;2.92;0.98;;;;;;;;;;4997878;28;20413;-74
2022/10/16 00:31:42;;;;;;;8.23;1.05;;;;;;;;;;4991316;28;20440;-74
2022/10/16 00:34:08;;;;;;;5.30;0.98;;;;;;;;;;5002499;28;20124;-74
2022/10/16 00:36:34;;;;;;;5.18;1.00;;;;;;;;;;4993871;28;20045;-74
2022/10/16 00:39:01;;;;;;;3.15;0.90;;;;;;;;;;5008731;28;20041;-74
2022/10/16 00:41:27;;;;;;;5.70;0.90;;;;;;;;;;5010054;28;20434;-74
2022/10/16 00:43:55;;;;;;;6.50;1.88;;;;;;;;;;5008206;28;20036;-73
2022/10/16 00:46:27;;;;;;;5.22;1.88;;;;;;;;;;5011659;28;20477;-74
2022/10/16 00:48:56;;;;;;;6.15;1.38;;;;;;;;;;5003309;28;20215;-74
2022/10/16 00:51:30;;;;;;;6.20;1.10;;;;;;;;;;5003876;28;20469;-74
2022/10/16 00:53:57;;;;;;;4.55;1.25;;;;;;;;;;5005545;28;20049;-74
2022/10/16 00:56:23;;;;;;;3.42;1.25;;;;;;;;;;4991354;28;20687;-74
2022/10/16 00:58:49;;;;;;;8.43;1.05;;;;;;;;;;5005535;28;20054;-74
2022/10/16 01:01:15;;;;;;;6.80;1.40;;;;;;;;;;5009417;28;20018;-74
2022/10/16 01:03:41;;;;;;;8.63;1.85;;;;;;;;;;5009567;28;20088;-74
2022/10/16 01:06:14;;;;;;;5.88;1.60;;;;;;;;;;5008005;28;20026;-74
2022/10/16 01:09:04;;;;;;;4.55;1.30;;;;;;;;;;5007610;28;20129;-74
2022/10/16 01:11:34;;;;;;;4.15;1.45;;;;;;;;;;5019029;28;20033;-74
2022/10/16 01:14:04;;;;;;;10.52;1.50;;;;;;;;;;5006583;28;20057;-74
2022/10/16 01:16:30;;;;;;;4.55;1.20;;;;;;;;;;4991115;28;20027;-74
2022/10/16 01:19:00;;;;;;;3.30;1.00;;;;;;;;;;5005751;28;20358;-73
2022/10/16 01:21:31;;;;;;;9.40;1.13;;;;;;;;;;5007422;28;20030;-74
2022/10/16 01:24:07;;;;;;;3.72;0.93;;;;;;;;;;5002299;28;20031;-74
2022/10/16 01:26:39;;;;;;;4.55;0.73;;;;;;;;;;5001028;28;20022;-74
2022/10/16 01:29:11;;;;;;;5.80;1.00;;;;;;;;;;5003176;28;20834;-74
2022/10/16 01:31:37;;;;;;;;;;;;;;;;;;5002575;28;20065;-74
2022/10/16 01:34:06;;;;;;;3.22;0.70;;;;;;;;;;5002948;28;20361;-74
2022/10/16 01:36:40;;;;;;;6.10;0.73;;;;;;;;;;4997701;28;20068;-74
2022/10/16 01:39:09;;;;;;;3.80;0.73;;;;;;;;;;5008584;28;20038;-73
2022/10/16 01:41:48;;;;;;;4.00;0.93;;;;;;;;;;4996641;28;20053;-73
2022/10/16 01:44:22;;;;;;;5.18;0.55;;;;;;;;;;5002620;28;20034;-74
2022/10/16 01:46:50;;;;;;;4.65;0.70;;;;;;;;;;5009100;28;20109;-73
2022/10/16 01:49:18;;;;;;;5.43;1.13;;;;;;;;;;5006034;28;20088;-74
2022/10/16 01:51:45;;;;;;;7.15;1.17;;;;;;;;;;5004649;28;20042;-74
2022/10/16 01:54:13;;;;;;;4.85;0.90;;;;;;;;;;4995366;28;20081;-74
2022/10/16 01:56:39;;;;;;;5.63;1.17;;;;;;;;;;5004852;28;20034;-73
2022/10/16 01:59:13;;;;;;;6.57;0.70;;;;;;;;;;5000429;28;20117;-74
2022/10/16 02:01:41;;;;;;;8.52;0.70;;;;;;;;;;5007071;28;20073;-74
2022/10/16 02:04:19;;;;;;;8.30;0.70;;;;;;;;;;5005776;28;20037;-74
2022/10/16 02:06:45;;;;;;;4.18;0.70;;;;;;;;;;5002311;28;20465;-74
2022/10/16 02:09:11;;;;;;;2.88;0.50;;;;;;;;;;5003929;28;20043;-74
2022/10/16 02:11:37;;;;;;;5.88;0.55;;;;;;;;;;4993180;28;20146;-74
2022/10/16 02:14:05;;;;;;;7.78;4.18;;;;;;;;;;5000923;28;20060;-74
2022/10/16 02:16:35;;;;;;;19.33;12.27;;;;;;;;;;5008455;28;20101;-74
2022/10/16 02:19:01;;;;;;;15.52;8.98;;;;;;;;;;4999813;28;20121;-74
2022/10/16 02:21:30;;;;;;;11.77;6.40;;;;;;;;;;5005168;28;20482;-74
2022/10/16 02:23:59;;;;;;;9.18;4.75;;;;;;;;;;4992745;28;20426;-74
2022/10/16 02:26:31;;;;;;;8.48;3.88;;;;;;;;;;5005870;28;20096;-74
2022/10/16 02:29:01;;;;;;;5.38;2.17;;;;;;;;;;5007619;28;20041;-74
2022/10/16 02:31:28;;;;;;;5.70;2.10;;;;;;;;;;5008237;28;20026;-74
2022/10/16 02:33:57;;;;;;;11.85;2.20;;;;;;;;;;5005420;28;20030;-74
2022/10/16 02:36:23;;;;;;;3.47;1.02;;;;;;;;;;5008599;28;20037;-74
2022/10/16 02:38:49;;;;;;;5.25;0.90;;;;;;;;;;4989067;28;20053;-74
2022/10/16 02:41:15;;;;;;;6.80;1.50;;;;;;;;;;5000822;28;20109;-74
2022/10/16 02:43:41;;;;;;;4.47;0.90;;;;;;;;;;5006756;28;20037;-74
2022/10/16 02:46:07;;;;;;;3.00;0.85;;;;;;;;;;5004336;28;20030;-74
2022/10/16 02:48:34;;;;;;;5.32;0.80;;;;;;;;;;5008021;28;20073;-74
2022/10/16 02:51:00;;;;;;;1.77;0.50;;;;;;;;;;5000712;28;20381;-74
2022/10/16 02:53:26;;;;;;;2.00;0.80;;;;;;;;;;5008285;28;20511;-74
2022/10/16 02:55:52;;;;;;;3.17;0.90;;;;;;;;;;5009583;28;20030;-74
2022/10/16 02:58:18;;;;;;;3.30;1.00;;;;;;;;;;5011652;28;20237;-73
2022/10/16 03:00:44;;;;;;;4.32;0.65;;;;;;;;;;5011113;28;20022;-74
2022/10/16 03:03:10;;;;;;;8.00;1.60;;;;;;;;;;5011144;28;20038;-74
2022/10/16 03:05:36;;;;;;;7.05;0.57;;;;;;;;;;5007405;28;20032;-74
2022/10/16 03:08:02;;;;;;;2.13;0.60;;;;;;;;;;5001123;28;20120;-74
2022/10/16 03:10:28;;;;;;;6.57;0.80;;;;;;;;;;5000646;28;20037;-74
2022/10/16 03:12:54;;;;;;;5.38;2.10;;;;;;;;;;5008585;28;20042;-74
2022/10/16 03:15:20;;;;;;;9.18;1.63;;;;;;;;;;5010835;28;20119;-74
2022/10/16 03:17:46;;;;;;;6.70;1.85;;;;;;;;;;5011825;28;20409;-74
2022/10/16 03:20:12;;;;;;;4.95;0.80;;;;;;;;;;5011117;28;20022;-74
2022/10/16 03:22:38;;;;;;;7.05;1.08;;;;;;;;;;5004544;28;20026;-74
2022/10/16 03:25:05;;;;;;;3.72;0.68;;;;;;;;;;5007005;28;20068;-74
2022/10/16 03:27:31;;;;;;;2.40;0.65;;;;;;;;;;5009959;28;20025;-74
2022/10/16 03:29:57;;;;;;;6.47;1.15;;;;;;;;;;5009737;28;20034;-74
2022/10/16 03:32:24;;;;;;;3.95;0.65;;;;;;;;;;5010664;28;20026;-74
2022/10/16 03:34:50;;;;;;;3.78;0.50;;;;;;;;;;4995475;28;20445;-74
2022/10/16 03:37:16;;;;;;;2.42;0.35;;;;;;;;;;5000935;28;20045;-74
2022/10/16 03:39:42;;;;;;;4.20;1.42;;;;;;;;;;5011620;28;20382;-74
2022/10/16 03:42:08;;;;;;;6.18;2.90;;;;;;;;;;5008921;28;20076;-74
2022/10/16 03:44:34;;;;;;;10.23;4.28;;;;;;;;;;5011501;28;20068;-74
2022/10/16 03:47:00;;;;;;;6.47;1.13;;;;;;;;;;5007578;28;20029;-74
2022/10/16 03:49:26;;;;;;;2.38;0.70;;;;;;;;;;5011179;28;20096;-74
2022/10/16 03:51:52;;;;;;;2.25;0.60;;;;;;;;;;5007205;28;20525;-74
2022/10/16 03:54:19;;;;;;;3.30;0.60;;;;;;;;;;5006603;28;20044;-74
2022/10/16 03:56:45;;;;;;;6.55;0.70;;;;;;;;;;5008816;28;20038;-74
2022/10/16 03:59:11;;;;;;;4.47;0.70;;;;;;;;;;5002617;28;20041;-74
2022/10/16 04:01:37;;;;;;;4.40;0.60;;;;;;;;;;5010750;28;20033;-74
2022/10/16 04:04:03;;;;;;;13.95;0.60;;;;;;;;;;5007177;28;20037;-74
2022/10/16 04:06:29;;;;;;;4.05;0.93;;;;;;;;;;5009911;28;20125;-74
2022/10/16 04:08:55;;;;;;;7.18;0.82;;;;;;;;;;5005916;28;20049;-74
2022/10/16 04:11:21;;;;;;;6.30;0.65;;;;;;;;;;4997047;28;20038;-74
2022/10/16 04:13:47;;;;;;;4.15;0.57;;;;;;;;;;5004114;28;20057;-74
2022/10/16 04:16:13;;;;;;;6.05;0.70;;;;;;;;;;5007053;28;20031;-74
2022/10/16 04:18:39;;;;;;;4.30;0.30;;;;;;;;;;5009272;28;20088;-74
2022/10/16 04:21:06;;;;;;;0.52;0.30;;;;;;;;;;5010760;28;20503;-74
2022/10/16 04:23:32;;;;;;;2.05;0.40;;;;;;;;;;5004899;28;20034;-74
2022/10/16 04:25:59;;;;;;;8.30;0.80;;;;;;;;;;5011267;28;20034;-73
2022/10/16 04:28:25;;;;;;;6.05;0.55;;;;;;;;;;5000989;28;20045;-74
2022/10/16 04:30:51;;;;;;;4.85;0.52;;;;;;;;;;5009205;28;20029;-73
2022/10/16 04:33:17;;;;;;;5.18;0.80;;;;;;;;;;5003804;28;20105;-74
2022/10/16 04:35:43;;;;;;;7.93;0.50;;;;;;;;;;5011171;28;20113;-74
2022/10/16 04:38:09;;;;;;;6.65;0.50;;;;;;;;;;5000566;28;20758;-74
2022/10/16 04:40:37;;;;;;;6.55;1.60;;;;;;;;;;5010894;28;20048;-74
2022/10/16 04:43:04;;;;;;;9.65;2.15;;;;;;;;;;5007764;28;20552;-74
2022/10/16 04:45:30;;;;;;;8.20;2.10;;;;;;;;;;5001688;28;20428;-73
2022/10/16 04:47:59;;;;;;;11.02;2.72;;;;;;;;;;5004661;28;20038;-74
2022/10/16 04:50:26;;;;;;;6.50;2.17;;;;;;;;;;5010345;28;20026;-74
2022/10/16 04:52:52;;;;;;;10.68;4.15;;;;;;;;;;5010068;28;20048;-74
2022/10/16 04:55:18;;;;;;;8.07;3.28;;;;;;;;;;4993392;28;20042;-74
2022/10/16 04:57:44;;;;;;;6.93;2.97;;;;;;;;;;5009961;28;20030;-74
2022/10/16 05:00:11;;;;;;;10.43;3.78;;;;;;;;;;5003898;28;20038;-74
2022/10/16 05:02:37;;;;;;;5.97;2.20;;;;;;;;;;5007372;28;20022;-74
2022/10/16 05:05:03;;;;;;;11.07;2.20;;;;;;;;;;5007695;28;20026;-74
2022/10/16 05:07:29;;;;;;;6.93;1.80;;;;;;;;;;5006171;28;20072;-74
2022/10/16 05:09:55;;;;;;;5.05;1.25;;;;;;;;;;5001744;28;20060;-74
2022/10/16 05:12:21;;;;;;;10.80;3.35;;;;;;;;;;4998385;28;20034;-74
2022/10/16 05:14:47;;;;;;;8.70;2.60;;;;;;;;;;5008531;28;20060;-74
2022/10/16 05:17:13;;;;;;;9.88;2.60;;;;;;;;;;5004563;28;20030;-73
2022/10/16 05:19:39;;;;;;;8.85;2.55;;;;;;;;;;5008745;28;20371;-73
2022/10/16 05:22:05;;;;;;;7.55;1.67;;;;;;;;;;5005310;28;20030;-74
2022/10/16 05:24:31;;;;;;;5.68;1.40;;;;;;;;;;5005425;28;20496;-74
2022/10/16 05:26:57;;;;;;;5.25;1.10;;;;;;;;;;5005877;28;20026;-74
2022/10/16 05:29:23;;;;;;;8.73;1.08;;;;;;;;;;5010959;28;20061;-73
2022/10/16 05:31:52;;;;;;;6.93;1.30;;;;;;;;;;5004947;28;20068;-74
2022/10/16 05:34:19;;;;;;;5.45;1.25;;;;;;;;;;5042155;23;20064;-74
2022/10/16 05:36:45;;;;;;;3.78;1.15;;;;;;;;;;5039651;28;20024;-73
2022/10/16 05:39:11;;;;;;;5.75;1.15;;;;;;;;;;5046281;28;20687;-74
2022/10/16 05:41:37;;;;;;;5.85;0.85;;;;;;;;;;5043735;28;20029;-73
2022/10/16 05:44:06;;;;;;;5.63;1.02;;;;;;;;;;5033712;28;20419;-74
2022/10/16 05:46:33;;;;;;;5.88;1.00;;;;;;;;;;5038221;28;20026;-74
2022/10/16 05:48:59;;;;;;;8.20;0.80;;;;;;;;;;5028812;28;20107;-74
2022/10/16 05:51:25;;;;;;;5.88;0.93;;;;;;;;;;5043939;28;20108;-73
2022/10/16 05:53:52;;;;;;;4.07;0.82;;;;;;;;;;5047320;28;20124;-73
2022/10/16 05:56:18;;;;;;;6.53;0.70;;;;;;;;;;5041119;28;20029;-73
2022/10/16 05:58:44;;;;;;;2.40;0.70;;;;;;;;;;5039293;28;20083;-74
2022/10/16 06:01:12;;;;;;;3.08;0.60;;;;;;;;;;5043012;28;20053;-74
2022/10/16 06:03:38;;;;;;;4.38;0.63;;;;;;;;;;5045111;28;20041;-74
2022/10/16 06:06:08;;;;;;;4.28;0.50;;;;;;;;;;5040819;28;20029;-73
2022/10/16 06:08:34;;;;;;;5.13;0.90;;;;;;;;;;5034096;28;20029;-74
2022/10/16 06:11:04;;;;;;;5.22;1.02;;;;;;;;;;5034361;28;20390;-73
2022/10/16 06:13:31;;;;;;;8.88;0.90;;;;;;;;;;5041052;28;20037;-73
2022/10/16 06:15:58;;;;;;;2.30;0.70;;;;;;;;;;5035506;28;20472;-73
2022/10/16 06:18:24;;;;;;;4.03;0.77;;;;;;;;;;5043619;28;20067;-73
2022/10/16 06:20:50;;;;;;;7.65;0.60;;;;;;;;;;5040472;28;20029;-73
2022/10/16 06:23:16;;;;;;;6.55;0.80;;;;;;;;;;5043943;28;20104;-74
2022/10/16 06:25:42;;;;;;;2.85;0.70;;;;;;;;;;5038695;28;20101;-74
2022/10/16 06:28:08;;;;;;;5.82;0.88;;;;;;;;;;5041438;28;21910;-73
2022/10/16 06:30:34;;;;;;;7.32;1.02;;;;;;;;;;5040400;28;20029;-73
2022/10/16 06:33:00;;;;;;;4.15;1.30;;;;;;;;;;5044849;28;20036;-73
2022/10/16 06:35:26;;;;;;;7.13;0.80;;;;;;;;;;5043332;28;20081;-74
2022/10/16 06:37:53;;;;;;;3.25;0.90;;;;;;;;;;5048505;28;20049;-73
2022/10/16 06:40:19;;;;;;;5.07;0.80;;;;;;;;;;5048333;28;20021;-73
2022/10/16 06:42:45;;;;;;;5.45;1.00;;;;;;;;;;5046754;28;20472;-73
2022/10/16 06:45:12;;;;;;;3.08;0.90;;;;;;;;;;5047440;28;20029;-73
2022/10/16 06:47:38;;;;;;;2.50;0.85;;;;;;;;;;5046480;28;20075;-73
2022/10/16 06:50:06;;;;;;;2.67;1.10;;;;;;;;;;5042164;28;20060;-73
2022/10/16 06:52:33;;;;;;;6.43;3.10;;;;;;;;;;5024924;28;20033;-73
2022/10/16 06:54:59;;;;;;;7.15;2.20;;;;;;;;;;5021205;28;20120;-73
2022/10/16 06:57:25;;;;;;;6.55;2.20;;;;;;;;;;5030563;28;20117;-73
2022/10/16 06:59:51;;;;;;;7.32;1.90;;;;;;;;;;5031497;28;20041;-74
2022/10/16 07:02:17;;;;;;;6.47;1.60;;;;;;;;;;5027118;28;20029;-74
2022/10/16 07:04:43;;;;;;;11.00;2.22;;;;;;;;;;5022822;28;20684;-73
2022/10/16 07:07:09;;;;;;;6.82;2.67;;;;;;;;;;5029139;28;20152;-73
2022/10/16 07:09:35;;;;;;;12.65;2.58;;;;;;;;;;5025793;28;20466;-73
2022/10/16 07:12:01;;;;;;;5.57;1.80;;;;;;;;;;5023627;28;20040;-74
2022/10/16 07:14:27;;;;;;;9.30;1.58;;;;;;;;;;5026538;28;20037;-73
2022/10/16 07:16:53;;;;;;;7.75;1.70;;;;;;;;;;5031383;28;20029;-73
2022/10/16 07:19:19;;;;;;;8.93;2.10;;;;;;;;;;5021634;28;20796;-73
2022/10/16 07:21:45;;;;;;;7.28;2.20;;;;;;;;;;5027847;28;20021;-73
2022/10/16 07:24:13;;;;;;;9.07;2.53;;;;;;;;;;5021355;28;20072;-73
2022/10/16 07:26:39;;;;;;;9.57;2.50;;;;;;;;;;5026704;28;20025;-73
2022/10/16 07:29:07;;;;;;;10.18;4.00;;;;;;;;;;5025623;28;20052;-73
2022/10/16 07:31:33;;;;;;;11.48;3.60;;;;;;;;;;5028251;28;20108;-73
2022/10/16 07:33:59;;;;;;;10.95;4.63;;;;;;;;;;5026899;28;20053;-73
2022/10/16 07:36:25;;;;;;;11.10;5.18;;;;;;;;;;5018228;28;20076;-73
2022/10/16 07:38:51;;;;;;;48.13;10.05;;;;;;;;;;5018486;28;20053;-73
2022/10/16 07:41:18;;;;;;;32.35;8.43;;;;;;;;;;5027604;28;20065;-73
2022/10/16 07:43:48;;;;;;;26.17;8.20;;;;;;;;;;5021162;28;20033;-73
2022/10/16 07:46:15;;;;;;;14.88;3.88;;;;;;;;;;5020884;28;20400;-73
2022/10/16 07:48:45;;;;;;;17.00;5.82;;;;;;;;;;5014655;28;20345;-73
2022/10/16 07:51:11;;;;;;;13.65;5.32;;;;;;;;;;5023397;28;20040;-73
2022/10/16 07:53:37;;;;;;;23.42;2.70;;;;;;;;;;5032106;28;20033;-73
2022/10/16 07:56:05;;;;;;;11.68;2.03;;;;;;;;;;5029272;28;20045;-73
2022/10/16 07:58:31;;;;;;;4.30;0.75;;;;;;;;;;5021828;28;20030;-73
2022/10/16 08:00:58;;;;;;;5.68;0.85;;;;;;;;;;5026438;28;20029;-73
2022/10/16 08:03:24;;;;;;;10.50;2.80;;;;;;;;;;5018176;28;20025;-73
2022/10/16 08:05:50;;;;;;;8.43;3.53;;;;;;;;;;5023672;28;20041;-73
2022/10/16 08:08:17;;;;;;;9.27;3.85;;;;;;;;;;5024129;28;20045;-73
2022/10/16 08:10:43;;;;;;;4.93;1.88;;;;;;;;;;5020848;28;20112;-73
2022/10/16 08:13:09;;;;;;;12.30;3.05;;;;;;;;;;5024750;28;20162;-72
2022/10/16 08:15:35;;;;;;;6.13;1.40;;;;;;;;;;5025422;28;20045;-73
2022/10/16 08:18:02;;;;;;;8.27;2.05;;;;;;;;;;5028775;28;20124;-73
2022/10/16 08:20:29;;;;;;;2.08;0.98;;;;;;;;;;5022297;28;20033;-73
2022/10/16 08:22:55;;;;;;;3.00;0.80;;;;;;;;;;5024810;28;20854;-73
2022/10/16 08:25:22;;;;;;;3.22;0.63;;;;;;;;;;5024186;28;20832;-73
2022/10/16 08:27:48;;;;;;;4.20;0.68;;;;;;;;;;5023023;28;20021;-73
2022/10/16 08:30:15;;;;;;;2.10;0.60;;;;;;;;;;5018884;28;20036;-73
2022/10/16 08:32:41;;;;;;;2.22;0.50;;;;;;;;;;5026731;28;20595;-73
2022/10/16 08:35:09;;;;;;;4.32;1.58;;;;;;;;;;5025004;28;20054;-73
2022/10/16 08:37:35;;;;;;;4.20;1.13;;;;;;;;;;5025950;28;20032;-73
2022/10/16 08:40:01;;;;;;;3.97;1.05;;;;;;;;;;5024614;28;20041;-73
2022/10/16 08:42:45;;;;;;;6.32;0.90;;;;;;;;;;5021318;28;20369;-73
2022/10/16 08:45:12;;;;;;;2.50;0.60;;;;;;;;;;5028604;28;20534;-73
2022/10/16 08:47:57;;;;;;;3.20;0.90;;;;;;;;;;5026189;28;20013;-73
2022/10/16 08:50:31;;;;;;;4.00;0.68;;;;;;;;;;5020632;28;20033;-74
2022/10/16 08:52:58;;;;;;;3.67;0.60;;;;;;;;;;5026933;28;20073;-74
2022/10/16 08:55:44;;;;;;;2.85;0.40;;;;;;;;;;5007869;28;20034;-74
2022/10/16 08:58:20;;;;;;;6.25;0.60;;;;;;;;;;5016954;28;20061;-74
2022/10/16 09:00:48;;;;;;;1.85;0.30;;;;;;;;;;5019170;28;20025;-74
2022/10/16 09:03:40;;;;;;;2.83;0.40;;;;;;;;;;5022044;28;20026;-74
2022/10/16 09:06:06;;;;;;;;;;;;;;;;;;4991171;28;20046;-74
2022/10/16 09:08:35;;;;;;;2.50;0.70;;;;;;;;;;5022213;28;19924;-74
2022/10/16 09:11:13;;;;;;;3.45;0.50;;;;;;;;;;5018277;28;20033;-74
2022/10/16 09:13:49;;;;;;;5.38;0.52;;;;;;;;;;5017603;28;20044;-74
2022/10/16 09:16:18;;;;;;;9.32;0.70;;;;;;;;;;5006899;28;20517;-74
2022/10/16 09:18:48;;;;;;;2.65;0.50;;;;;;;;;;5020300;28;20707;-74
2022/10/16 09:21:18;;;;;;;2.45;0.43;;;;;;;;;;5024657;28;20025;-74
2022/10/16 09:23:45;;;;;;;6.93;0.57;;;;;;;;;;5020315;28;20034;-74
2022/10/16 09:26:12;;;;;;;1.90;0.50;;;;;;;;;;5020518;28;20109;-74
2022/10/16 09:28:38;;;;;;;1.42;0.35;;;;;;;;;;5027760;28;20033;-74
2022/10/16 09:31:05;;;;;;;2.95;0.50;;;;;;;;;;5019665;28;20030;-74
2022/10/16 09:33:35;;;;;;;0.90;0.40;;;;;;;;;;5026645;28;20069;-74
2022/10/16 09:36:03;;;;;;;2.35;0.80;;;;;;;;;;5016432;28;20042;-74
2022/10/16 09:38:33;;;;;;;1.70;0.50;;;;;;;;;;5027081;28;20087;-74
2022/10/16 09:41:00;;;;;;;3.88;0.77;;;;;;;;;;5022593;28;20032;-74
2022/10/16 09:43:49;;;;;;;6.38;0.88;;;;;;;;;;5021676;28;20044;-74
2022/10/16 09:46:28;;;;;;;2.03;0.50;;;;;;;;;;4987449;28;20041;-74
2022/10/16 09:48:58;;;;;;;1.58;0.50;;;;;;;;;;5019287;28;20041;-74
2022/10/16 09:51:26;;;;;;;4.35;0.40;;;;;;;;;;5023466;28;20037;-74
2022/10/16 09:53:56;;;;;;;2.75;0.80;;;;;;;;;;5017113;28;20102;-74
2022/10/16 09:56:24;;;;;;;1.50;0.68;;;;;;;;;;5017514;28;20538;-74
2022/10/16 09:58:51;;;;;;;2.25;0.80;;;;;;;;;;5003127;28;20049;-74
2022/10/16 10:01:17;;;;;;;2.72;0.60;;;;;;;;;;5019082;28;20026;-74
2022/10/16 10:03:45;;;;;;;2.10;0.68;;;;;;;;;;5026494;28;20037;-74
2022/10/16 10:06:25;;;;;;;3.35;0.52;;;;;;;;;;5026419;28;20567;-74
2022/10/16 10:08:54;;;;;;;3.50;0.45;;;;;;;;;;5021279;28;20042;-74
2022/10/16 10:11:36;;;;;;;4.63;0.60;;;;;;;;;;5026346;28;20037;-74
2022/10/16 10:14:06;;;;;;;4.03;0.60;;;;;;;;;;5022400;28;20068;-74
2022/10/16 10:16:32;;;;;;;2.38;0.50;;;;;;;;;;5025437;28;20188;-74
2022/10/16 10:18:59;;;;;;;0.88;0.30;;;;;;;;;;5025828;28;20391;-74
2022/10/16 10:21:25;;;;;;;0.70;0.32;;;;;;;;;;5028762;28;20052;-75
2022/10/16 10:23:57;;;;;;;2.78;0.63;;;;;;;;;;5026673;28;20108;-74
2022/10/16 10:26:28;;;;;;;1.35;0.43;;;;;;;;;;5024804;28;20064;-74
2022/10/16 10:29:12;;;;;;;1.75;0.50;;;;;;;;;;5021384;28;20041;-74
2022/10/16 10:31:49;;;;;;;8.63;2.70;;;;;;;;;;5027468;28;20388;-74
2022/10/16 10:34:15;;;;;;;6.15;1.52;;;;;;;;;;5020248;28;20152;-74
2022/10/16 10:36:42;;;;;;;4.32;0.85;;;;;;;;;;5026222;28;20104;-74
2022/10/16 10:39:17;;;;;;;5.50;2.42;;;;;;;;;;5027374;28;20034;-74
2022/10/16 10:42:01;;;;;;;1.17;0.43;;;;;;;;;;5023828;28;20021;-74
2022/10/16 10:44:46;;;;;;;4.85;0.50;;;;;;;;;;5026963;28;20037;-74
2022/10/16 10:47:36;;;;;;;4.07;0.57;;;;;;;;;;5022849;28;20148;-74
2022/10/16 10:50:02;;;;;;;2.22;0.50;;;;;;;;;;5028933;28;20045;-74
2022/10/16 10:52:28;;;;;;;2.33;0.50;;;;;;;;;;5023687;28;20029;-74
2022/10/16 10:55:10;;;;;;;2.75;0.80;;;;;;;;;;5017562;28;20050;-74
2022/10/16 10:57:42;;;;;;;28.10;9.50;;;;;;;;;;5025376;28;20868;-74
2022/10/16 11:00:35;;;;;;;56.60;22.95;;;;;;;;;;5021425;28;20388;-74
2022/10/16 11:03:03;;;;;;;6.63;1.83;;;;;;;;;;4985427;28;20041;-74
2022/10/16 11:05:35;;;;;;;12.43;4.80;;;;;;;;;;5026827;28;20480;-74
2022/10/16 11:08:22;;;;;;;9.93;1.40;;;;;;;;;;5022251;28;20502;-74
2022/10/16 11:11:06;;;;;;;4.00;1.20;;;;;;;;;;5010629;28;20044;-74
2022/10/16 11:13:35;;;;;;;4.53;0.82;;;;;;;;;;5024376;28;20542;-74
2022/10/16 11:16:06;;;;;;;8.10;1.25;;;;;;;;;;5023316;28;20038;-74
2022/10/16 11:19:02;;;;;;;5.35;0.70;;;;;;;;;;5023825;28;20063;-74
2022/10/16 11:21:30;;;;;;;5.85;1.02;;;;;;;;;;4948767;28;20074;-74
2022/10/16 11:24:00;;;;;;;3.28;0.77;;;;;;;;;;5028328;28;20018;-74
2022/10/16 11:26:33;;;;;;;1.67;0.55;;;;;;;;;;5023456;28;20442;-74
2022/10/16 11:29:00;;;;;;;3.25;0.50;;;;;;;;;;5022729;28;20121;-74
2022/10/16 11:31:36;;;;;;;2.95;0.63;;;;;;;;;;5007000;28;20080;-74
2022/10/16 11:34:07;;;;;;;3.33;0.70;;;;;;;;;;5026669;28;20077;-73
2022/10/16 11:36:39;;;;;;;2.88;0.50;;;;;;;;;;5024972;28;20086;-74
2022/10/16 11:39:20;;;;;;;1.42;0.50;;;;;;;;;;5023876;28;20044;-74
2022/10/16 11:41:46;;;;;;;2.83;0.40;;;;;;;;;;5024079;28;20064;-74
2022/10/16 11:44:31;;;;;;;2.25;0.38;;;;;;;;;;5024409;28;20057;-74
2022/10/16 11:47:00;;;;;;;5.35;1.10;;;;;;;;;;5021046;28;20041;-74
2022/10/16 11:49:27;;;;;;;1.58;0.47;;;;;;;;;;5024934;28;20156;-74
2022/10/16 11:51:59;;;;;;;0.80;0.22;;;;;;;;;;5018499;28;20042;-74
2022/10/16 11:54:28;;;;;;;1.80;0.43;;;;;;;;;;5021469;28;20056;-74
2022/10/16 11:56:58;;;;;;;8.75;2.00;;;;;;;;;;5021879;28;20053;-74
2022/10/16 11:59:30;;;;;;;9.57;1.67;;;;;;;;;;5015921;28;20045;-74
2022/10/16 12:02:11;;;;;;;11.85;2.45;;;;;;;;;;5018034;28;20030;-74
2022/10/16 12:04:45;;;;;;;2.85;0.43;;;;;;;;;;5024328;28;20034;-77
2022/10/16 12:07:24;;;;;;;3.50;0.82;;;;;;;;;;5017645;28;20038;-79
2022/10/16 12:09:50;;;;;;;1.85;0.60;;;;;;;;;;5016737;28;20033;-76
2022/10/16 12:12:38;;;;;;;4.18;0.30;;;;;;;;;;5017215;28;20033;-77
2022/10/16 12:15:04;;;;;;;4.15;0.40;;;;;;;;;;5020155;28;20075;-80
2022/10/16 12:17:38;;;;;;;0.63;0.20;;;;;;;;;;5022711;28;20069;-84
2022/10/16 12:20:13;;;;;;;3.25;0.63;;;;;;;;;;5020220;28;20147;-83
2022/10/16 12:22:59;;;;;;;2.22;0.40;;;;;;;;;;5023499;28;20098;-83
2022/10/16 12:25:30;;;;;;;1.45;0.20;;;;;;;;;;5022799;28;20026;-83
2022/10/16 12:27:56;;;;;;;0.50;0.30;;;;;;;;;;5016680;28;20497;-84
2022/10/16 12:30:24;;;;;;;1.92;0.30;;;;;;;;;;5022063;28;20183;-83
2022/10/16 12:32:54;;;;;;;2.90;0.30;;;;;;;;;;5021146;28;20017;-83
2022/10/16 12:35:22;;;;;;;3.15;0.40;;;;;;;;;;5021591;28;20049;-82
2022/10/16 12:37:48;;;;;;;2.40;0.40;;;;;;;;;;5022618;28;20473;-83
2022/10/16 12:40:16;;;;;;;1.70;0.20;;;;;;;;;;5024176;28;20567;-82
2022/10/16 12:42:42;;;;;;;2.72;0.52;;;;;;;;;;5025467;28;20382;-73
2022/10/16 12:45:23;;;;;;;1.85;0.40;;;;;;;;;;5015731;28;20049;-72
2022/10/16 12:47:51;;;;;;;3.22;0.60;;;;;;;;;;5017760;28;20026;-72
2022/10/16 12:50:44;;;;;;;1.33;0.40;;;;;;;;;;5015634;28;20037;-72
2022/10/16 12:53:26;;;;;;;8.02;2.03;;;;;;;;;;5011813;28;20047;-72
2022/10/16 12:55:51;;;;;;;;;;;;;;;;;;5017251;28;20199;-72
2022/10/16 12:58:38;;;;;;;3.08;0.60;;;;;;;;;;5017641;28;20630;-72
2022/10/16 13:01:07;;;;;;;2.33;0.60;;;;;;;;;;5014586;28;20021;-72
2022/10/16 13:03:58;;;;;;;4.65;0.70;;;;;;;;;;5016179;28;20505;-72
2022/10/16 13:06:57;;;;;;;4.13;0.95;;;;;;;;;;5015322;28;20117;-72
2022/10/16 13:09:32;;;;;;;3.65;0.95;;;;;;;;;;4983551;28;20041;-71
2022/10/16 13:12:01;;;;;;;3.58;0.90;;;;;;;;;;5019173;28;20034;-72
2022/10/16 13:14:45;;;;;;;3.67;0.80;;;;;;;;;;5017243;28;20056;-72
2022/10/16 13:17:14;;;;;;;5.15;0.80;;;;;;;;;;5013899;28;20700;-72
2022/10/16 13:19:40;;;;;;;3.50;0.63;;;;;;;;;;5016073;28;20034;-72
2022/10/16 13:22:06;;;;;;;0.80;0.40;;;;;;;;;;5018982;28;20044;-72
2022/10/16 13:24:44;;;;;;;1.63;0.40;;;;;;;;;;5015382;28;20093;-72
2022/10/16 13:27:16;;;;;;;0.77;0.40;;;;;;;;;;5012414;28;20444;-72
2022/10/16 13:29:42;;;;;;;2.55;0.38;;;;;;;;;;5013582;28;20030;-72
2022/10/16 13:32:12;;;;;;;1.10;0.30;;;;;;;;;;5016500;28;20061;-72
2022/10/16 13:34:45;;;;;;;1.70;0.35;;;;;;;;;;5018257;28;20045;-72
2022/10/16 13:37:38;;;;;;;3.00;0.40;;;;;;;;;;5012595;28;20906;-72
2022/10/16 13:40:18;;;;;;;5.65;0.70;;;;;;;;;;5013187;28;20038;-72
2022/10/16 13:42:44;;;;;;;3.78;0.60;;;;;;;;;;5018411;28;20057;-72
2022/10/16 13:45:21;;;;;;;2.67;0.50;;;;;;;;;;5012648;28;20045;-72
2022/10/16 13:47:47;;;;;;;2.53;0.40;;;;;;;;;;5021545;28;20029;-72
2022/10/16 13:50:14;;;;;;;2.38;0.57;;;;;;;;;;5014546;28;20503;-72
2022/10/16 13:52:41;;;;;;;1.75;0.57;;;;;;;;;;5018710;28;20660;-72
2022/10/16 13:55:14;;;;;;;2.10;0.50;;;;;;;;;;5020400;28;20040;-72
2022/10/16 13:57:41;;;;;;;2.35;0.80;;;;;;;;;;5016641;28;20034;-71
2022/10/16 14:00:19;;;;;;;1.65;0.57;;;;;;;;;;5015434;28;20031;-72
2022/10/16 14:02:46;;;;;;;6.15;0.50;;;;;;;;;;5013916;28;20112;-72
2022/10/16 14:05:14;;;;;;;2.17;0.70;;;;;;;;;;5015511;28;20037;-72
2022/10/16 14:07:41;;;;;;;3.65;0.60;;;;;;;;;;5015304;28;20037;-72
2022/10/16 14:10:18;;;;;;;1.90;0.40;;;;;;;;;;5014574;28;20034;-71
2022/10/16 14:12:45;;;;;;;2.50;0.50;;;;;;;;;;5020575;28;20120;-72
2022/10/16 14:15:18;;;;;;;3.83;0.50;;;;;;;;;;5018379;28;20037;-72
2022/10/16 14:17:44;;;;;;;2.30;0.43;;;;;;;;;;5017963;28;20212;-72
2022/10/16 14:20:15;;;;;;;2.67;0.63;;;;;;;;;;5012741;28;20034;-72
2022/10/16 14:22:42;;;;;;;4.35;0.70;;;;;;;;;;5017794;28;20046;-72
2022/10/16 14:25:21;;;;;;;2.88;0.50;;;;;;;;;;5014076;28;20022;-72
2022/10/16 14:28:05;;;;;;;2.22;0.60;;;;;;;;;;5015453;28;20508;-72
2022/10/16 14:30:34;;;;;;;3.60;0.60;;;;;;;;;;5018310;28;20037;-71
2022/10/16 14:33:04;;;;;;;4.70;0.70;;;;;;;;;;5019394;28;20499;-72
2022/10/16 14:35:30;;;;;;;2.00;0.68;;;;;;;;;;5017638;28;20103;-72
2022/10/16 14:37:57;;;;;;;2.45;0.70;;;;;;;;;;5014689;28;20384;-72
2022/10/16 14:40:25;;;;;;;1.40;0.40;;;;;;;;;;5018359;28;20483;-72
2022/10/16 14:42:51;;;;;;;4.68;1.20;;;;;;;;;;5015045;28;20029;-72
2022/10/16 14:45:24;;;;;;;6.50;0.73;;;;;;;;;;5017737;28;20028;-72
2022/10/16 14:47:52;;;;;;;2.90;0.70;;;;;;;;;;5016220;28;20104;-72
2022/10/16 14:50:18;;;;;;;1.42;0.45;;;;;;;;;;5019549;28;20075;-72
2022/10/16 14:52:44;;;;;;;3.38;0.50;;;;;;;;;;5019844;28;20029;-72
2022/10/16 14:55:10;;;;;;;3.45;0.65;;;;;;;;;;5020260;28;20037;-72